Nearby METAR Reports

 

KBFI - Seattle/Boeing, Washington, USA
Distance from station: S 4mi, 7km
Updated: 2019-10-17 05:53
Light rain, Overcast
Light rain, Overcast
 Wind from SSW
Wind: SSW 8 mph , 13 km/h, Gust: 16 mph , 26 km/h
Temperature: 54°F , 12°C
Dew Point: 45°F , 7°C
Humidity: 72%
Barometer: 29.69 inHg , 1005.4 hPa
Summary: Light rain
Clouds: Overcast
Visibility: 10 miles , 16 km
Cloud details: Partly cloudy 4100 ft
Mostly cloudy 5000 ft
Overcast 7000 ft
2019/10/17 12:53 KBFI 171253Z 20007G14KT 10SM -RA SCT041 BKN050 OVC070 12/07 A2969 RMK AO2 RAB50 SLP054 P0000 T01220072
KRNT - Renton, Washington, USA
Distance from station: SSE 9mi, 14km
Updated: 2019-10-17 05:53
Mostly cloudy
Mostly cloudy
 Wind from varies
Wind: varies 3 mph , 6 km/h
Temperature: 52°F , 11°C
Dew Point: 45°F , 7°C
Humidity: 77%
Barometer: 29.69 inHg , 1005.4 hPa
Clouds: Mostly cloudy
Visibility: 10 miles , 16 km
Cloud details: Few Clouds 3800 ft
Mostly cloudy 6000 ft
Mostly cloudy 12000 ft
2019/10/17 12:53 KRNT 171253Z AUTO VRB03KT 10SM FEW038 BKN060 BKN120 11/07 A2969 RMK AO2 SLP060 T01110072
 
KSEA - Seattle/Metro, Washington, USA
Distance from station: S 11mi, 18km
Updated: 2019-10-17 05:53
Mostly cloudy
Mostly cloudy
 Wind from S
Wind: S 14 mph , 22 km/h
Temperature: 54°F , 12°C
Dew Point: 45°F , 7°C
Humidity: 72%
Barometer: 29.69 inHg , 1005.4 hPa
Clouds: Mostly cloudy
Visibility: 10 miles , 16 km
Cloud details: Few Clouds 3000 ft
Partly cloudy 5500 ft
Mostly cloudy 12000 ft
2019/10/17 12:53 KSEA 171253Z 18012KT 10SM FEW030 SCT055 BKN120 12/07 A2969 RMK AO2 SLP059 T01170067
KPAE - Everett, Washington, USA
Distance from station: N 21mi, 34km
Updated: 2019-10-17 05:53
Mostly cloudy
Mostly cloudy
 Wind from SSE
Wind: SSE 16 mph , 26 km/h
Temperature: 52°F , 11°C
Dew Point: 46°F , 8°C
Humidity: 82%
Barometer: 29.66 inHg , 1004.4 hPa
Clouds: Mostly cloudy
Visibility: 10 miles , 16 km
Cloud details: Mostly cloudy 8500 ft
2019/10/17 12:53 KPAE 171253Z AUTO 16014KT 10SM BKN085 11/08 A2966 RMK AO2 SLP045 T01060078
 
KPWT - Bremerton Ntnl, Washington, USA
Distance from station: WSW 22mi, 35km
Updated: 2019-10-17 05:56
Light rain, Overcast
Light rain, Overcast
 Wind from S
Wind: S 9 mph , 15 km/h
Temperature: 48°F , 9°C
Wind Chill: 44°F , 7°C
Dew Point: 48°F , 9°C
Humidity: 100%
Barometer: 29.68 inHg , 1005.1 hPa
Summary: Light rain
Clouds: Overcast
Visibility: 10 miles , 16 km
Cloud details: Mostly cloudy 600 ft
Mostly cloudy 2600 ft
Overcast 5000 ft
2019/10/17 12:56 KPWT 171256Z AUTO 19008KT 10SM -RA BKN006 BKN026 OVC050 09/09 A2968 RMK AO2 CIG 004V014 SLP068 T00940089 PNO $
KTIW - Tacoma, Washington, USA
Distance from station: SSW 27mi, 43km
Updated: 2019-10-17 05:53
Overcast
Overcast
 Wind from S
Wind: S 12 mph , 19 km/h
Temperature: 50°F , 10°C
Wind Chill: 45°F , 7°C
Dew Point: 46°F , 8°C
Humidity: 88%
Barometer: 29.69 inHg , 1005.4 hPa
Clouds: Overcast
Visibility: 10 miles , 16 km
Cloud details: Overcast 5500 ft
2019/10/17 12:53 KTIW 171253Z AUTO 19010KT 10SM OVC055 10/08 A2969 RMK AO2 SLP053 T01000083
 
KTCM - Tacoma/Mc Chord, Washington, USA
Distance from station: S 35mi, 56km
Updated: 2019-10-17 06:03
Mostly cloudy
Mostly cloudy
 Wind from SSE
Wind: SSE 8 mph , 13 km/h
Temperature: 50°F , 10°C
Wind Chill: 47°F , 8°C
Dew Point: 50°F , 10°C
Humidity: 100%
Barometer: 29.70 inHg , 1005.8 hPa
Clouds: Mostly cloudy
Visibility: 10 miles , 16 km
Cloud details: Mostly cloudy 4000 ft
Mostly cloudy 6000 ft
2019/10/17 13:03 KTCM 171303Z AUTO 16007KT 10SM BKN040 BKN060 10/10 A2970 RMK AO2 RAE03 SLP061 $
KPLU - Puyallup/Thun, Washington, USA
Distance from station: S 35mi, 57km
Updated: 2019-10-17 05:55
Overcast
Overcast
 Wind from S
Wind: S 7 mph , 11 km/h
Temperature: 50°F , 10°C
Wind Chill: 47°F , 8°C
Dew Point: 46°F , 8°C
Humidity: 88%
Barometer: 29.71 inHg , 1006.1 hPa
Clouds: Overcast
Visibility: 10 miles , 16 km
Cloud details: Mostly cloudy 4800 ft
Overcast 5500 ft
2019/10/17 12:55 KPLU 171255Z AUTO 17006KT 10SM BKN048 OVC055 10/08 A2971 RMK AO2
 
K0S9 - Port Townsend, Washington, USA
Distance from station: NW 38mi, 62km
Updated: 2019-10-17 06:15
Overcast
Overcast
 Wind from SSW
Wind: SSW 7 mph , 11 km/h, Gust: 14 mph , 22 km/h
Temperature: 52°F , 11°C
Dew Point: 48°F , 9°C
Humidity: 88%
Barometer: 29.61 inHg , 1002.7 hPa
Clouds: Overcast
Visibility: 10 miles , 16 km
Cloud details: Overcast 1200 ft
2019/10/17 13:15 K0S9 171315Z AUTO 20006G12KT 10SM OVC012 11/09 A2961 RMK AO2
KAWO - Arlington Muni, Washington, USA
Distance from station: N 39mi, 63km
Updated: 2019-10-17 05:56
Light rain, Overcast
Light rain, Overcast
 Wind from SE
Wind: SE 15 mph , 24 km/h
Temperature: 52°F , 11°C
Dew Point: 46°F , 8°C
Humidity: 82%
Barometer: 29.66 inHg , 1004.4 hPa
Summary: Light rain
Clouds: Overcast
Visibility: 10 miles , 16 km
Cloud details: Few Clouds 3000 ft
Partly cloudy 4700 ft
Overcast 11000 ft
2019/10/17 12:56 KAWO 171256Z AUTO 14013KT 10SM -RA FEW030 SCT047 OVC110 11/08 A2966 RMK AO2 RAB21 SLP048 T01110083 PNO $
 
KGRF - Fort Lewis/Gray, Washington, USA
Distance from station: SSW 39mi, 64km
Updated: 2019-10-17 05:58
Overcast
Overcast
 Wind from SE
Wind: SE 8 mph , 13 km/h
Temperature: 50°F , 10°C
Wind Chill: 47°F , 8°C
Dew Point: 50°F , 10°C
Humidity: 100%
Barometer: 29.69 inHg , 1005.4 hPa
Clouds: Overcast
Visibility: 10 miles , 16 km
Cloud details: Mostly cloudy 3800 ft
Overcast 4700 ft
2019/10/17 12:58 KGRF 171258Z AUTO 13007KT 10SM BKN038 OVC047 10/10 A2969 RMK AO2 RAB31E51DZB51E53 SLP058 P0001 T00980098 $
KSHN - Shelton, Washington, USA
Distance from station: SW 46mi, 75km
Updated: 2019-10-17 05:53
Overcast
Overcast
 Wind from SE
Wind: SE 6 mph , 9 km/h
Temperature: 50°F , 10°C
Wind Chill: 48°F , 9°C
Dew Point: 48°F , 9°C
Humidity: 94%
Barometer: 29.65 inHg , 1004.1 hPa
Clouds: Overcast
Visibility: 10 miles , 16 km
Cloud details: Mostly cloudy 2400 ft
Mostly cloudy 3800 ft
Overcast 6500 ft
2019/10/17 12:53 KSHN 171253Z AUTO 13005KT 10SM BKN024 BKN038 OVC065 10/09 A2965 RMK AO2 RAE27 SLP042 P0004 T01000089